Time;durP1;ratioP1;P1;durP2;ratioP2;P2;SDS_P1;SDS_P2;PMS_P1;PMS_P2;Temp;Humidity;BMP_temperature;BMP_pressure;BME280_temperature;BME280_humidity;BME280_pressure;Samples;Min_cycle;Max_cycle;Signal;HPM_P1;HPM_P2
2021/06/10 00:01:33;;;;;;;2.78;1.45;;;21.50;59.30;;;;;;5096456;28;20031;-71
2021/06/10 00:03:59;;;;;;;2.53;1.50;;;21.50;59.70;;;;;;5097053;28;20421;-72
2021/06/10 00:06:24;;;;;;;1.33;1.23;;;21.60;59.20;;;;;;5097134;28;20020;-71
2021/06/10 00:08:50;;;;;;;1.60;1.50;;;21.60;59.50;;;;;;5096951;28;20387;-72
2021/06/10 00:11:16;;;;;;;2.00;1.70;;;21.60;58.90;;;;;;5097189;28;20027;-71
2021/06/10 00:13:43;;;;;;;2.58;1.60;;;21.60;58.10;;;;;;5097034;28;20040;-72
2021/06/10 00:16:09;;;;;;;2.20;1.42;;;21.70;58.70;;;;;;5096768;28;20031;-71
2021/06/10 00:18:34;;;;;;;1.50;1.30;;;21.60;58.80;;;;;;5097143;28;20032;-71
2021/06/10 00:21:00;;;;;;;2.00;1.40;;;21.60;58.30;;;;;;5096749;28;20401;-71
2021/06/10 00:23:26;;;;;;;2.47;1.50;;;21.70;59.60;;;;;;5097077;28;20020;-71
2021/06/10 00:25:52;;;;;;;1.52;1.42;;;21.60;59.00;;;;;;5096665;28;20515;-71
2021/06/10 00:28:17;;;;;;;2.58;1.30;;;21.60;59.20;;;;;;5096621;28;20130;-71
2021/06/10 00:30:43;;;;;;;2.15;1.40;;;21.50;59.80;;;;;;5096654;28;20024;-71
2021/06/10 00:33:10;;;;;;;3.17;1.30;;;21.50;59.10;;;;;;5097149;28;20074;-71
2021/06/10 00:35:36;;;;;;;2.63;1.50;;;21.50;59.20;;;;;;5096897;28;20024;-71
2021/06/10 00:38:02;;;;;;;2.53;1.88;;;21.50;59.30;;;;;;5096596;28;20026;-72
2021/06/10 00:40:30;;;;;;;2.72;1.55;;;21.60;59.30;;;;;;5096598;28;20026;-71
2021/06/10 00:42:57;;;;;;;2.00;1.40;;;21.60;59.40;;;;;;5096809;28;20032;-71
2021/06/10 00:45:24;;;;;;;1.58;1.40;;;21.50;58.80;;;;;;5095345;28;20047;-72
2021/06/10 00:47:51;;;;;;;1.92;1.33;;;21.50;59.40;;;;;;5096430;28;20039;-72
2021/06/10 00:50:21;;;;;;;3.38;1.50;;;21.40;59.10;;;;;;5096803;28;20028;-71
2021/06/10 00:52:48;;;;;;;1.58;1.30;;;21.40;59.70;;;;;;5096754;28;20084;-71
2021/06/10 00:55:14;;;;;;;2.05;1.35;;;21.30;59.90;;;;;;5096758;28;20130;-71
2021/06/10 00:57:40;;;;;;;3.65;1.60;;;21.20;60.30;;;;;;5096442;28;20036;-71
2021/06/10 01:00:08;;;;;;;3.17;1.70;;;21.20;59.40;;;;;;5096752;28;20028;-71
2021/06/10 01:02:35;;;;;;;2.92;1.60;;;21.20;59.70;;;;;;5096358;28;20035;-71
2021/06/10 01:05:00;;;;;;;3.78;1.50;;;21.20;60.20;;;;;;5096366;28;20039;-71
2021/06/10 01:07:44;;;;;;;1.20;1.00;;;21.20;59.50;;;;;;5096543;28;20032;-71
2021/06/10 01:10:24;;;;;;;1.45;1.30;;;21.20;59.60;;;;;;5096416;28;20028;-72
2021/06/10 01:13:05;;;;;;;2.28;1.30;;;21.20;59.40;;;;;;5097938;28;20111;-71
2021/06/10 01:15:38;;;;;;;1.75;1.25;;;21.20;59.80;;;;;;5100209;28;20024;-71
2021/06/10 01:18:04;;;;;;;2.05;1.00;;;21.20;60.10;;;;;;5100360;28;20043;-71
2021/06/10 01:20:31;;;;;;;1.27;1.00;;;21.20;58.80;;;;;;5099992;28;20032;-71
2021/06/10 01:22:57;;;;;;;1.20;1.10;;;21.20;58.70;;;;;;5100224;28;20028;-71
2021/06/10 01:25:46;;;;;;;1.67;1.10;;;21.30;58.40;;;;;;5100207;28;20090;-71
2021/06/10 01:28:33;;;;;;;1.10;0.90;;;21.30;57.90;;;;;;5099830;28;20089;-71
2021/06/10 01:31:07;;;;;;;3.75;1.08;;;21.40;58.50;;;;;;5099839;28;20020;-72
2021/06/10 01:33:38;;;;;;;1.10;0.88;;;21.30;59.10;;;;;;5099806;28;20031;-71
2021/06/10 01:36:06;;;;;;;1.30;0.93;;;21.20;59.20;;;;;;5099980;28;20027;-71
2021/06/10 01:38:32;;;;;;;1.77;1.13;;;21.20;59.60;;;;;;5099649;28;20110;-71
2021/06/10 01:41:00;;;;;;;3.35;1.17;;;21.10;59.50;;;;;;5098600;28;20024;-71
2021/06/10 01:43:29;;;;;;;2.30;1.10;;;21.10;59.70;;;;;;5099441;28;20127;-71
2021/06/10 01:45:59;;;;;;;1.50;1.10;;;21.10;59.00;;;;;;5099784;28;20028;-71
2021/06/10 01:48:26;;;;;;;1.40;1.05;;;21.10;58.10;;;;;;5099690;28;20032;-71
2021/06/10 01:50:55;;;;;;;2.00;1.20;;;21.10;59.20;;;;;;5099686;28;20077;-71
2021/06/10 01:53:21;;;;;;;1.48;1.02;;;21.10;57.90;;;;;;5099552;28;20369;-71
2021/06/10 01:55:48;;;;;;;2.33;1.33;;;21.20;59.30;;;;;;5099260;28;20047;-71
2021/06/10 01:58:15;;;;;;;2.00;1.30;;;21.20;58.60;;;;;;5099578;28;20036;-71
2021/06/10 02:00:42;;;;;;;0.90;0.80;;;21.20;58.80;;;;;;5099549;28;20354;-71
2021/06/10 02:03:09;;;;;;;3.13;1.30;;;21.20;58.50;;;;;;5099627;28;20320;-71
2021/06/10 02:05:38;;;;;;;4.55;0.98;;;21.20;58.00;;;;;;5099387;28;20092;-71
2021/06/10 02:08:10;;;;;;;2.75;0.90;;;21.20;58.00;;;;;;5099272;28;20032;-71
2021/06/10 02:10:38;;;;;;;1.65;1.10;;;21.30;57.90;;;;;;5099374;28;20024;-71
2021/06/10 02:13:04;;;;;;;1.50;0.90;;;21.30;58.60;;;;;;5099233;28;20328;-71
2021/06/10 02:15:31;;;;;;;1.30;1.00;;;21.20;57.70;;;;;;5099192;28;20050;-71
2021/06/10 02:17:56;;;;;;;1.35;1.00;;;21.30;58.70;;;;;;5098891;28;20035;-72
2021/06/10 02:20:23;;;;;;;1.20;0.90;;;21.30;58.50;;;;;;5098853;28;20028;-72
2021/06/10 02:22:49;;;;;;;1.75;1.02;;;21.20;58.70;;;;;;5098763;28;20031;-71
2021/06/10 02:25:15;;;;;;;1.20;0.80;;;21.20;58.40;;;;;;5098117;28;20021;-71
2021/06/10 02:27:41;;;;;;;1.33;1.00;;;21.20;58.30;;;;;;5098646;28;20111;-71
2021/06/10 02:30:09;;;;;;;1.38;0.90;;;21.10;58.80;;;;;;5098951;28;20026;-71
2021/06/10 02:32:35;;;;;;;1.60;1.00;;;21.10;58.00;;;;;;5098873;28;20020;-71
2021/06/10 02:35:03;;;;;;;4.18;1.10;;;21.10;58.60;;;;;;5098543;28;20036;-71
2021/06/10 02:37:30;;;;;;;3.08;0.82;;;21.10;59.00;;;;;;5098524;28;20033;-72
2021/06/10 02:39:56;;;;;;;3.65;0.80;;;21.00;60.10;;;;;;5098435;28;20050;-71
2021/06/10 02:42:23;;;;;;;1.25;0.90;;;20.90;59.00;;;;;;5098671;28;20062;-71
2021/06/10 02:44:52;;;;;;;4.25;0.75;;;21.00;59.50;;;;;;5098158;28;20048;-72
2021/06/10 02:47:20;;;;;;;1.23;0.70;;;21.00;59.00;;;;;;5098521;28;20028;-71
2021/06/10 02:49:48;;;;;;;1.00;0.65;;;21.00;58.10;;;;;;5098541;28;20028;-71
2021/06/10 02:52:16;;;;;;;0.90;0.80;;;21.10;58.00;;;;;;5098187;28;20020;-72
2021/06/10 02:54:44;;;;;;;1.08;0.70;;;21.10;57.70;;;;;;5098443;28;20407;-72
2021/06/10 02:57:10;;;;;;;1.65;1.10;;;21.20;58.20;;;;;;5098446;28;20104;-71
2021/06/10 02:59:40;;;;;;;1.00;0.70;;;21.20;58.70;;;;;;5098377;28;20020;-71
2021/06/10 03:02:07;;;;;;;1.42;0.70;;;21.10;58.50;;;;;;5098066;28;20028;-71
2021/06/10 03:04:33;;;;;;;0.93;0.68;;;21.10;57.10;;;;;;5098016;28;20028;-71
2021/06/10 03:07:00;;;;;;;1.75;0.80;;;21.20;57.30;;;;;;5098192;28;20024;-71
2021/06/10 03:09:27;;;;;;;1.30;0.80;;;21.20;57.50;;;;;;5098206;28;20138;-72
2021/06/10 03:11:54;;;;;;;1.13;0.70;;;21.20;58.30;;;;;;5098092;28;20323;-71
2021/06/10 03:14:21;;;;;;;1.98;0.80;;;21.20;56.40;;;;;;5098162;28;20039;-71
2021/06/10 03:16:49;;;;;;;0.75;0.50;;;21.20;57.50;;;;;;5098028;28;20320;-71
2021/06/10 03:19:16;;;;;;;0.85;0.60;;;21.20;57.10;;;;;;5098071;28;20016;-71
2021/06/10 03:21:43;;;;;;;2.30;0.70;;;21.30;56.80;;;;;;5097961;28;20035;-71
2021/06/10 03:24:09;;;;;;;1.98;0.73;;;21.20;56.80;;;;;;5097985;28;20031;-71
2021/06/10 03:26:36;;;;;;;1.48;0.70;;;21.30;57.40;;;;;;5097778;28;20024;-71
2021/06/10 03:29:03;;;;;;;1.77;0.70;;;21.30;57.10;;;;;;5097550;28;20031;-71
2021/06/10 03:31:30;;;;;;;1.42;0.80;;;21.30;57.40;;;;;;5097823;28;20316;-72
2021/06/10 03:33:57;;;;;;;1.60;0.80;;;21.30;57.40;;;;;;5097516;28;20115;-71
2021/06/10 03:36:24;;;;;;;1.85;0.80;;;21.20;58.60;;;;;;5097249;28;20032;-71
2021/06/10 03:38:51;;;;;;;3.63;0.98;;;21.10;58.30;;;;;;5097352;28;20112;-71
2021/06/10 03:41:18;;;;;;;4.43;0.98;;;21.00;59.50;;;;;;5097314;28;20028;-71
2021/06/10 03:43:45;;;;;;;1.80;0.82;;;20.90;59.30;;;;;;5097367;28;20051;-71
2021/06/10 03:46:11;;;;;;;1.77;1.00;;;20.80;59.40;;;;;;5097192;28;20028;-71
2021/06/10 03:48:41;;;;;;;1.10;0.90;;;20.80;60.90;;;;;;5097438;28;20320;-71
2021/06/10 03:51:15;;;;;;;1.20;1.00;;;20.70;60.80;;;;;;5097447;28;20289;-71
2021/06/10 03:53:43;;;;;;;1.17;0.98;;;20.80;60.30;;;;;;5097177;28;20024;-71
2021/06/10 03:56:09;;;;;;;1.73;0.85;;;20.80;61.00;;;;;;5097216;28;20103;-71
2021/06/10 03:58:35;;;;;;;1.77;1.00;;;20.90;61.30;;;;;;5097036;28;20055;-71
2021/06/10 04:01:00;;;;;;;2.05;1.40;;;20.80;60.70;;;;;;5097035;28;20031;-71
2021/06/10 04:03:26;;;;;;;1.63;1.38;;;20.80;62.40;;;;;;5097331;28;20035;-71
2021/06/10 04:05:52;;;;;;;1.33;1.23;;;20.70;62.80;;;;;;5096916;28;20328;-71
2021/06/10 04:08:18;;;;;;;1.50;1.30;;;20.60;62.70;;;;;;5097148;28;20048;-71
2021/06/10 04:10:44;;;;;;;1.75;1.45;;;20.50;64.70;;;;;;5097220;28;20016;-71
2021/06/10 04:13:09;;;;;;;2.30;1.30;;;20.40;66.00;;;;;;5096932;28;20046;-71
2021/06/10 04:15:35;;;;;;;3.80;1.45;;;20.30;68.50;;;;;;5097089;28;20023;-71
2021/06/10 04:18:01;;;;;;;2.47;2.10;;;20.20;69.30;;;;;;5096796;28;20332;-71
2021/06/10 04:20:28;;;;;;;3.10;2.80;;;20.10;68.50;;;;;;5096811;28;20027;-71
2021/06/10 04:22:54;;;;;;;3.25;2.88;;;20.00;69.40;;;;;;5097021;28;20028;-71
2021/06/10 04:25:19;;;;;;;2.80;2.58;;;19.80;70.60;;;;;;5097022;28;20367;-71
2021/06/10 04:27:45;;;;;;;5.90;3.17;;;19.70;71.50;;;;;;5096942;28;20035;-71
2021/06/10 04:30:13;;;;;;;4.07;3.30;;;19.60;72.10;;;;;;5096711;28;20085;-71
2021/06/10 04:32:41;;;;;;;6.90;3.17;;;19.60;72.60;;;;;;5096945;28;20031;-71
2021/06/10 04:35:08;;;;;;;4.53;3.72;;;19.50;73.90;;;;;;5096959;28;20024;-71
2021/06/10 04:37:34;;;;;;;4.50;3.95;;;19.40;73.80;;;;;;5096619;28;20028;-71
2021/06/10 04:40:00;;;;;;;7.75;3.60;;;19.40;75.00;;;;;;5096953;28;20031;-71
2021/06/10 04:42:25;;;;;;;4.90;3.40;;;19.50;74.90;;;;;;5096901;28;20111;-71
2021/06/10 04:44:51;;;;;;;5.20;3.00;;;19.50;74.80;;;;;;5096518;28;20066;-71
2021/06/10 04:47:17;;;;;;;5.63;3.47;;;19.50;74.70;;;;;;5097688;28;20115;-71
2021/06/10 04:49:44;;;;;;;3.17;2.88;;;19.60;75.30;;;;;;5100613;28;20024;-71
2021/06/10 04:52:10;;;;;;;5.32;2.80;;;19.60;75.20;;;;;;5100563;28;20408;-71
2021/06/10 04:54:36;;;;;;;4.47;3.28;;;19.70;77.10;;;;;;5100518;28;20020;-71
2021/06/10 04:57:03;;;;;;;3.05;2.42;;;19.70;77.20;;;;;;5100476;28;20088;-71
2021/06/10 04:59:29;;;;;;;2.47;2.25;;;19.70;72.80;;;;;;5100406;28;20016;-71
2021/06/10 05:01:56;;;;;;;4.43;2.00;;;19.60;71.00;;;;;;5100361;28;20446;-71
2021/06/10 05:04:22;;;;;;;2.10;1.67;;;19.60;70.00;;;;;;5100724;28;20078;-71
2021/06/10 05:06:50;;;;;;;2.20;1.60;;;19.60;68.20;;;;;;5100438;28;20086;-71
2021/06/10 05:09:16;;;;;;;1.80;1.40;;;19.70;68.20;;;;;;5100543;28;20039;-71
2021/06/10 05:11:42;;;;;;;1.40;1.30;;;19.90;70.10;;;;;;5100488;28;20024;-71
2021/06/10 05:14:08;;;;;;;1.60;1.40;;;19.90;69.50;;;;;;5100135;28;20040;-71
2021/06/10 05:16:34;;;;;;;1.65;1.40;;;19.90;69.80;;;;;;5100062;28;20134;-71
2021/06/10 05:18:59;;;;;;;1.40;1.30;;;19.90;70.60;;;;;;5100425;28;20028;-71
2021/06/10 05:21:25;;;;;;;3.65;1.70;;;19.90;70.60;;;;;;5100312;28;20024;-71
2021/06/10 05:23:51;;;;;;;1.90;1.33;;;19.90;69.90;;;;;;5100308;28;20420;-71
2021/06/10 05:26:16;;;;;;;3.90;2.05;;;19.90;71.00;;;;;;5099874;28;20028;-71
2021/06/10 05:28:42;;;;;;;2.60;1.70;;;19.90;71.80;;;;;;5100148;28;20024;-71
2021/06/10 05:31:08;;;;;;;1.88;1.60;;;20.00;72.60;;;;;;5100166;28;20412;-71
2021/06/10 05:33:37;;;;;;;2.03;1.38;;;20.00;69.30;;;;;;5100136;28;20047;-71
2021/06/10 05:36:04;;;;;;;2.95;1.30;;;20.10;69.40;;;;;;5099621;28;20085;-71
2021/06/10 05:38:30;;;;;;;5.20;1.70;;;20.20;69.60;;;;;;5099698;28;20020;-71
2021/06/10 05:40:56;;;;;;;5.50;1.67;;;20.40;68.20;;;;;;5099601;28;20034;-71
2021/06/10 05:43:22;;;;;;;1.63;1.50;;;20.50;68.90;;;;;;5099847;28;20036;-72
2021/06/10 05:45:49;;;;;;;2.72;1.67;;;20.60;68.20;;;;;;5099364;28;20343;-71
2021/06/10 05:48:17;;;;;;;1.70;1.27;;;20.70;68.50;;;;;;5099753;28;20109;-71
2021/06/10 05:50:43;;;;;;;1.80;1.25;;;20.70;68.40;;;;;;5099438;28;20078;-71
2021/06/10 05:53:08;;;;;;;1.80;1.40;;;20.70;66.80;;;;;;5099729;28;20020;-71
2021/06/10 05:55:34;;;;;;;2.05;1.48;;;20.60;67.50;;;;;;5099330;28;20480;-71
2021/06/10 05:58:00;;;;;;;2.03;1.30;;;20.50;67.40;;;;;;5099010;28;20050;-71
2021/06/10 06:00:26;;;;;;;1.98;1.20;;;20.50;68.00;;;;;;5098552;28;20070;-71
2021/06/10 06:02:51;;;;;;;2.75;1.20;;;20.70;69.00;;;;;;5099226;28;20111;-71
2021/06/10 06:05:17;;;;;;;1.42;1.33;;;20.70;69.30;;;;;;5099485;28;20107;-72
2021/06/10 06:07:43;;;;;;;1.58;1.45;;;20.70;69.10;;;;;;5099052;28;20374;-71
2021/06/10 06:10:09;;;;;;;3.60;1.33;;;20.50;71.30;;;;;;5099378;28;20023;-71
2021/06/10 06:12:36;;;;;;;2.83;1.27;;;20.40;70.30;;;;;;5099035;28;20023;-71
2021/06/10 06:15:02;;;;;;;1.52;1.42;;;20.40;70.40;;;;;;5099509;28;20027;-71
2021/06/10 06:17:27;;;;;;;1.80;1.50;;;20.40;72.30;;;;;;5098911;28;20062;-71
2021/06/10 06:19:58;;;;;;;3.03;1.48;;;20.40;74.10;;;;;;5098924;28;20053;-71
2021/06/10 06:22:26;;;;;;;1.65;1.40;;;20.40;73.80;;;;;;5098886;28;20040;-71
2021/06/10 06:24:52;;;;;;;2.58;1.30;;;20.50;72.50;;;;;;5098793;28;20085;-71
2021/06/10 06:27:18;;;;;;;10.60;1.60;;;20.50;71.70;;;;;;5098984;28;20032;-71
2021/06/10 06:29:43;;;;;;;20.83;1.90;;;20.70;71.90;;;;;;5098671;28;20031;-71
2021/06/10 06:32:09;;;;;;;4.43;1.50;;;21.00;73.30;;;;;;5098958;28;20099;-71
2021/06/10 06:34:35;;;;;;;2.17;1.38;;;21.20;70.30;;;;;;5098923;28;20020;-71
2021/06/10 06:37:01;;;;;;;2.33;1.60;;;21.30;72.00;;;;;;5098882;28;20368;-71
2021/06/10 06:39:26;;;;;;;1.52;1.10;;;21.30;70.60;;;;;;5098483;28;20107;-71
2021/06/10 06:41:52;;;;;;;1.60;1.45;;;21.30;69.20;;;;;;5098748;28;20028;-71
2021/06/10 06:44:18;;;;;;;3.15;1.20;;;21.40;70.30;;;;;;5098307;28;20052;-71
2021/06/10 06:46:44;;;;;;;1.42;1.33;;;21.60;73.40;;;;;;5098557;28;20028;-71
2021/06/10 06:49:10;;;;;;;1.75;1.40;;;21.70;68.80;;;;;;5098337;28;20145;-71
2021/06/10 06:51:36;;;;;;;2.50;1.30;;;21.80;69.80;;;;;;5098570;28;20052;-71
2021/06/10 06:54:01;;;;;;;2.47;1.30;;;21.80;71.90;;;;;;5098587;28;20043;-71
2021/06/10 06:56:27;;;;;;;1.60;1.35;;;21.90;74.20;;;;;;5098268;28;20021;-71
2021/06/10 06:58:53;;;;;;;1.70;1.23;;;22.00;72.30;;;;;;5098142;28;20016;-71
2021/06/10 07:01:19;;;;;;;2.17;1.30;;;21.80;67.10;;;;;;5098124;28;20028;-71
2021/06/10 07:03:45;;;;;;;2.22;1.48;;;21.70;68.00;;;;;;5098048;28;20491;-71
2021/06/10 07:06:11;;;;;;;1.83;1.30;;;21.70;66.70;;;;;;5097982;28;20099;-71
2021/06/10 07:08:37;;;;;;;2.58;1.25;;;21.80;69.70;;;;;;5098171;28;20048;-71
2021/06/10 07:11:03;;;;;;;2.30;1.30;;;21.80;67.40;;;;;;5097486;28;20081;-71
2021/06/10 07:13:29;;;;;;;3.30;1.25;;;21.90;68.80;;;;;;5098191;28;20032;-71
2021/06/10 07:15:55;;;;;;;1.50;1.38;;;22.00;68.40;;;;;;5098027;28;20032;-71
2021/06/10 07:18:20;;;;;;;1.40;1.23;;;22.00;70.10;;;;;;5097116;28;20312;-72
2021/06/10 07:20:46;;;;;;;1.55;1.13;;;22.10;69.40;;;;;;5096479;28;20145;-71
2021/06/10 07:23:12;;;;;;;1.42;1.33;;;22.20;68.40;;;;;;5096713;28;20032;-71
2021/06/10 07:25:38;;;;;;;1.80;1.48;;;22.30;67.90;;;;;;5095606;28;20109;-71
2021/06/10 07:28:04;;;;;;;1.88;1.25;;;22.40;68.30;;;;;;5095476;28;20051;-71
2021/06/10 07:30:31;;;;;;;1.80;1.50;;;22.40;65.50;;;;;;5095564;28;20020;-71
2021/06/10 07:32:56;;;;;;;3.85;1.60;;;22.60;67.00;;;;;;5095398;28;20077;-71
2021/06/10 07:35:23;;;;;;;3.08;1.33;;;22.80;66.90;;;;;;5095477;28;20375;-71
2021/06/10 07:37:50;;;;;;;1.52;1.40;;;22.90;65.30;;;;;;5095860;28;20020;-71
2021/06/10 07:40:17;;;;;;;2.03;1.40;;;23.40;62.10;;;;;;5097242;28;20032;-71
2021/06/10 07:42:43;;;;;;;1.92;1.20;;;24.30;63.40;;;;;;5097321;28;20427;-71
2021/06/10 07:45:10;;;;;;;2.20;1.30;;;25.70;60.10;;;;;;5097050;28;20084;-71
2021/06/10 07:47:36;;;;;;;2.15;1.13;;;26.40;54.90;;;;;;5097058;28;20484;-71
2021/06/10 07:50:04;;;;;;;1.75;1.30;;;26.20;54.90;;;;;;5097244;28;20024;-71
2021/06/10 07:52:30;;;;;;;3.47;1.30;;;25.90;57.70;;;;;;5097102;28;20040;-71
2021/06/10 07:54:55;;;;;;;1.60;1.10;;;25.40;57.40;;;;;;5097043;28;20020;-71
2021/06/10 07:57:21;;;;;;;1.92;1.30;;;24.90;58.60;;;;;;5096285;28;20103;-71
2021/06/10 07:59:47;;;;;;;1.30;1.20;;;24.50;60.40;;;;;;5095372;28;20093;-71
2021/06/10 08:02:13;;;;;;;2.35;1.25;;;24.10;60.10;;;;;;5095318;28;20038;-71
2021/06/10 08:04:38;;;;;;;3.53;1.30;;;23.80;61.10;;;;;;5094869;28;20154;-71
2021/06/10 08:07:04;;;;;;;1.92;1.30;;;23.60;62.10;;;;;;5094834;28;20092;-71
2021/06/10 08:09:33;;;;;;;3.45;1.40;;;23.50;62.30;;;;;;5094921;28;20020;-71
2021/06/10 08:12:00;;;;;;;1.63;1.30;;;23.50;63.70;;;;;;5094857;28;20028;-71
2021/06/10 08:14:26;;;;;;;7.20;1.33;;;23.70;61.60;;;;;;5096729;28;20020;-71
2021/06/10 08:16:52;;;;;;;1.70;1.48;;;23.90;62.80;;;;;;5096778;28;20107;-71
2021/06/10 08:19:18;;;;;;;1.42;1.33;;;24.20;60.90;;;;;;5097138;28;20074;-71
2021/06/10 08:21:43;;;;;;;2.08;1.48;;;24.20;62.80;;;;;;5096297;28;20024;-71
2021/06/10 08:24:11;;;;;;;1.40;1.30;;;24.10;61.80;;;;;;5096812;28;20066;-71
2021/06/10 08:26:37;;;;;;;3.05;1.23;;;24.00;67.20;;;;;;5096876;28;20039;-71
2021/06/10 08:29:03;;;;;;;2.35;1.60;;;23.90;60.00;;;;;;5096703;28;20440;-71
2021/06/10 08:31:29;;;;;;;3.03;1.35;;;23.80;59.20;;;;;;5096738;28;20024;-71
2021/06/10 08:33:55;;;;;;;1.75;1.38;;;23.90;61.80;;;;;;5096835;28;20364;-71
2021/06/10 08:36:22;;;;;;;1.52;1.20;;;23.90;64.60;;;;;;5096615;28;20028;-71
2021/06/10 08:38:48;;;;;;;2.53;1.75;;;23.80;67.40;;;;;;5096637;28;20036;-71
2021/06/10 08:41:14;;;;;;;1.85;1.50;;;23.90;65.70;;;;;;5096498;28;20067;-71
2021/06/10 08:43:41;;;;;;;2.80;1.52;;;23.80;66.70;;;;;;5096524;28;20051;-70
2021/06/10 08:46:10;;;;;;;1.85;1.60;;;23.80;64.70;;;;;;5095130;28;20031;-70
2021/06/10 08:48:38;;;;;;;3.10;1.42;;;23.70;67.20;;;;;;5095782;28;20082;-70
2021/06/10 08:51:06;;;;;;;2.58;1.60;;;23.60;66.30;;;;;;5095800;28;20024;-69
2021/06/10 08:53:32;;;;;;;2.50;1.30;;;23.30;66.50;;;;;;5096842;28;20293;-69
2021/06/10 08:55:58;;;;;;;2.45;1.38;;;23.10;66.30;;;;;;5096415;28;20027;-69
2021/06/10 08:58:26;;;;;;;2.33;1.60;;;23.00;68.10;;;;;;5096775;28;20024;-69
2021/06/10 09:00:54;;;;;;;2.60;1.65;;;23.00;66.40;;;;;;5096765;28;20085;-70
2021/06/10 09:03:22;;;;;;;3.67;1.52;;;23.60;67.30;;;;;;5095340;28;20103;-70
2021/06/10 09:06:06;;;;;;;2.78;1.55;;;24.10;66.50;;;;;;5094611;28;20039;-70
2021/06/10 09:08:33;;;;;;;2.05;1.40;;;25.50;62.60;;;;;;5094579;28;20103;-70
2021/06/10 09:11:11;;;;;;;2.35;1.65;;;26.80;58.00;;;;;;5094670;28;20077;-70
2021/06/10 09:13:39;;;;;;;1.80;1.55;;;27.90;51.80;;;;;;5094661;28;20029;-70
2021/06/10 09:16:33;;;;;;;1.40;1.30;;;28.70;51.30;;;;;;5094231;28;20041;-70
2021/06/10 09:19:16;;;;;;;1.75;1.50;;;29.20;48.70;;;;;;5095909;28;20020;-70
2021/06/10 09:21:42;;;;;;;1.25;1.13;;;29.30;48.20;;;;;;5096587;28;20035;-70
2021/06/10 09:24:21;;;;;;;2.63;1.30;;;29.70;50.00;;;;;;5096561;28;20055;-70
2021/06/10 09:26:59;;;;;;;3.08;1.30;;;29.90;49.40;;;;;;5096014;28;20028;-69
2021/06/10 09:29:46;;;;;;;2.05;1.30;;;30.40;50.50;;;;;;5096524;28;20035;-70
2021/06/10 09:32:20;;;;;;;1.50;1.30;;;30.80;50.20;;;;;;5096462;28;20032;-70
2021/06/10 09:34:56;;;;;;;3.10;1.33;;;30.90;52.70;;;;;;5099220;28;20027;-70
2021/06/10 09:37:43;;;;;;;2.20;1.67;;;31.50;48.40;;;;;;5100076;28;20086;-71
2021/06/10 09:40:17;;;;;;;1.83;1.38;;;31.80;51.10;;;;;;5099733;28;20103;-70
2021/06/10 09:42:46;;;;;;;3.20;1.55;;;31.70;49.90;;;;;;5099970;28;20107;-70
2021/06/10 09:45:17;;;;;;;1.88;1.30;;;31.90;51.40;;;;;;5099485;28;20138;-69
2021/06/10 09:47:46;;;;;;;1.85;1.20;;;32.20;48.20;;;;;;5099486;28;20040;-71
2021/06/10 09:50:18;;;;;;;2.83;1.23;;;32.20;47.10;;;;;;5099463;28;20254;-70
2021/06/10 09:53:04;;;;;;;2.58;1.30;;;32.30;50.20;;;;;;5099404;28;20036;-70
2021/06/10 09:55:40;;;;;;;1.85;1.30;;;31.60;48.90;;;;;;5099079;28;20036;-70
2021/06/10 09:58:35;;;;;;;2.92;1.20;;;31.60;50.90;;;;;;5099669;28;20069;-70
2021/06/10 10:01:03;;;;;;;1.20;1.10;;;31.70;47.70;;;;;;5099678;28;20321;-70
2021/06/10 10:03:32;;;;;;;3.60;1.30;;;31.90;51.00;;;;;;5099604;28;20291;-70
2021/06/10 10:06:12;;;;;;;2.15;1.20;;;31.90;46.70;;;;;;5099139;28;20055;-70
2021/06/10 10:08:39;;;;;;;2.97;1.40;;;31.80;47.30;;;;;;5099414;28;20031;-70
2021/06/10 10:11:07;;;;;;;1.58;1.13;;;31.40;49.90;;;;;;5099092;28;20077;-70
2021/06/10 10:13:33;;;;;;;2.42;1.48;;;30.10;46.70;;;;;;5098974;28;20034;-70
2021/06/10 10:16:00;;;;;;;1.90;1.30;;;29.00;49.20;;;;;;5098239;28;20051;-70
2021/06/10 10:18:26;;;;;;;2.45;1.52;;;28.00;50.20;;;;;;5107320;28;20024;-70
2021/06/10 10:20:52;;;;;;;5.35;1.75;;;27.30;53.10;;;;;;5101220;28;20305;-70
2021/06/10 10:23:18;;;;;;;2.17;1.60;;;26.80;53.10;;;;;;5099203;28;20078;-70
2021/06/10 10:25:44;;;;;;;2.88;1.60;;;26.60;57.10;;;;;;5098719;28;20032;-70
2021/06/10 10:28:14;;;;;;;2.22;1.55;;;26.60;56.30;;;;;;5098994;28;20059;-70
2021/06/10 10:30:46;;;;;;;1.95;1.50;;;26.50;55.10;;;;;;5099078;28;20028;-70
2021/06/10 10:33:23;;;;;;;2.50;1.83;;;27.20;55.80;;;;;;5098685;28;20438;-70
2021/06/10 10:35:53;;;;;;;1.58;1.42;;;27.90;52.60;;;;;;5098635;28;20447;-71
2021/06/10 10:38:28;;;;;;;2.45;1.52;;;28.40;51.50;;;;;;5098918;28;20323;-71
2021/06/10 10:40:56;;;;;;;;;;;29.20;54.30;;;;;;5099305;28;20366;-71
2021/06/10 10:43:25;;;;;;;2.15;1.70;;;29.40;53.90;;;;;;5098828;28;19915;-70
2021/06/10 10:46:04;;;;;;;3.35;1.75;;;29.10;53.30;;;;;;5097462;28;20428;-70
2021/06/10 10:48:32;;;;;;;2.80;2.10;;;28.80;58.60;;;;;;5098306;28;20044;-70
2021/06/10 10:50:58;;;;;;;1.90;1.65;;;28.90;57.10;;;;;;5098588;28;20073;-70
2021/06/10 10:53:30;;;;;;;1.40;1.30;;;29.70;51.80;;;;;;5098617;28;20046;-70
2021/06/10 10:56:07;;;;;;;3.70;1.70;;;30.30;51.40;;;;;;5098229;28;20101;-70
2021/06/10 10:58:35;;;;;;;2.55;1.70;;;30.40;54.00;;;;;;5098196;28;20028;-70
2021/06/10 11:01:04;;;;;;;1.85;1.55;;;30.60;55.80;;;;;;5098130;28;20107;-71
2021/06/10 11:03:38;;;;;;;2.38;1.45;;;31.10;48.90;;;;;;5098082;28;20460;-70
2021/06/10 11:06:22;;;;;;;4.20;1.70;;;31.60;48.30;;;;;;5098328;28;20328;-70
2021/06/10 11:09:20;;;;;;;3.15;1.77;;;30.80;49.30;;;;;;5097880;28;20039;-70
2021/06/10 11:11:54;;;;;;;4.13;2.05;;;30.50;53.40;;;;;;5082504;28;20036;-70
2021/06/10 11:14:41;;;;;;;2.28;1.80;;;30.50;53.70;;;;;;5097978;28;20112;-70
2021/06/10 11:17:17;;;;;;;3.30;1.77;;;30.40;51.60;;;;;;5098160;28;20024;-70
2021/06/10 11:20:00;;;;;;;2.00;1.80;;;30.50;49.10;;;;;;5097777;28;20427;-70
2021/06/10 11:22:35;;;;;;;3.75;1.63;;;30.00;49.20;;;;;;5098009;28;20058;-70
2021/06/10 11:25:03;;;;;;;3.60;1.75;;;29.30;50.30;;;;;;5097678;28;20032;-70
2021/06/10 11:27:40;;;;;;;3.10;2.00;;;28.50;53.20;;;;;;5097555;28;20024;-70
2021/06/10 11:30:13;;;;;;;2.58;1.65;;;28.10;56.00;;;;;;5097945;28;20028;-70
2021/06/10 11:33:05;;;;;;;2.53;1.80;;;27.90;52.60;;;;;;5097519;28;20031;-70
2021/06/10 11:35:48;;;;;;;4.13;1.85;;;27.90;58.10;;;;;;5097806;28;20035;-70
2021/06/10 11:38:19;;;;;;;2.25;1.90;;;28.10;53.50;;;;;;5097453;28;20032;-70
2021/06/10 11:40:47;;;;;;;3.15;1.65;;;28.50;56.60;;;;;;5097751;28;20145;-70
2021/06/10 11:43:15;;;;;;;5.43;2.00;;;28.70;52.70;;;;;;5097492;28;20040;-70
2021/06/10 11:45:42;;;;;;;2.28;1.63;;;28.90;53.30;;;;;;5097120;28;20374;-70
2021/06/10 11:48:08;;;;;;;3.05;1.95;;;28.90;53.60;;;;;;5097515;28;20106;-70
2021/06/10 11:50:37;;;;;;;2.55;2.00;;;28.90;55.70;;;;;;5097205;28;20058;-70
2021/06/10 11:53:20;;;;;;;4.07;1.73;;;28.70;52.70;;;;;;5097486;28;20355;-69
2021/06/10 11:55:47;;;;;;;2.38;2.00;;;28.50;53.70;;;;;;5097349;28;20293;-70
2021/06/10 11:58:14;;;;;;;2.67;1.83;;;27.90;54.80;;;;;;5097139;28;20028;-70
2021/06/10 12:00:42;;;;;;;3.75;2.05;;;27.70;57.80;;;;;;5097118;28;20489;-70
2021/06/10 12:03:11;;;;;;;5.10;2.00;;;27.80;56.50;;;;;;5097025;28;20104;-70
2021/06/10 12:05:53;;;;;;;2.30;1.60;;;27.80;54.80;;;;;;5097271;28;20043;-70
2021/06/10 12:08:22;;;;;;;2.30;2.10;;;27.90;59.80;;;;;;5097180;28;20107;-70
2021/06/10 12:10:59;;;;;;;2.65;1.80;;;27.90;56.40;;;;;;5097253;28;20024;-70
2021/06/10 12:13:25;;;;;;;2.25;1.90;;;27.60;53.10;;;;;;5097301;28;20341;-70
2021/06/10 12:15:52;;;;;;;2.33;2.10;;;27.00;55.10;;;;;;5097153;28;20032;-70
2021/06/10 12:18:20;;;;;;;2.10;1.85;;;26.60;56.10;;;;;;5097121;28;20119;-70
2021/06/10 12:20:48;;;;;;;2.80;1.80;;;26.40;55.70;;;;;;5096811;28;20419;-70
2021/06/10 12:23:22;;;;;;;2.90;1.70;;;25.90;55.40;;;;;;5097334;28;20020;-70
2021/06/10 12:25:56;;;;;;;2.33;1.90;;;25.80;57.30;;;;;;5097071;28;20028;-70
2021/06/10 12:28:39;;;;;;;2.40;2.00;;;25.70;59.40;;;;;;5096703;28;20028;-70
2021/06/10 12:31:15;;;;;;;1.70;1.58;;;25.60;56.60;;;;;;5096745;28;20086;-70
2021/06/10 12:33:43;;;;;;;3.28;1.80;;;25.20;58.90;;;;;;5097009;28;20028;-70
2021/06/10 12:36:14;;;;;;;6.03;2.25;;;24.90;64.20;;;;;;5096654;28;20025;-70
2021/06/10 12:38:40;;;;;;;2.60;2.10;;;24.60;69.10;;;;;;5096660;28;20036;-70
2021/06/10 12:41:14;;;;;;;3.35;2.40;;;24.10;66.30;;;;;;5096966;28;20038;-70
2021/06/10 12:43:41;;;;;;;2.83;2.45;;;23.50;71.40;;;;;;5096730;28;20039;-70
2021/06/10 12:46:06;;;;;;;3.80;2.33;;;23.20;77.40;;;;;;5096869;28;20324;-70
2021/06/10 12:48:35;;;;;;;2.75;2.30;;;23.00;78.50;;;;;;5096454;28;20036;-70
2021/06/10 12:51:23;;;;;;;2.70;2.50;;;22.90;81.10;;;;;;5096828;28;20365;-70
2021/06/10 12:53:53;;;;;;;3.45;2.90;;;22.80;84.60;;;;;;5096567;28;20107;-70
2021/06/10 12:56:34;;;;;;;2.97;2.78;;;22.70;82.00;;;;;;5096770;28;20035;-70